• Join FlightAware (Why Join?)
  • Login
  • US Flag 
07:49AM EST


 

Airport Tracker/Info


-or-


 

Live Flight TrackerFlight Track Log ✈ N319EE ✈ 18-Jun-2014 ✈ KROC - KAUG

Flight Track Log - Related Links

Times and Time Zones

All times are in EDT time to prevent confusion due to time zone crossing. See the N319EE flight status page for this flight to view local times or setup timezone preferences in your user account.

Time Position Orientation Groundspeed Altitude Reporting Facility
EDT Latitude Longitude Course Direction KTS MPH feet Rate Location/Type
04:45PM 43.1194 -77.7025 259° West 153 176 1,500  Level Cleveland Center
04:46PM 43.1350 -77.7489 295° West 247 284 3,300 1,620 Climbing Cleveland Center
04:47PM 43.1656 -77.7069 45° Northeast 185 213 4,900 1,740 Climbing Cleveland Center
04:48PM 43.1769 -77.6367 77° East 185 213 6,900 1,680 Climbing Cleveland Center
04:49PM 43.1914 -77.5639 75° East 192 221 8,400 1,560 Climbing Cleveland Center
04:50PM 43.2061 -77.4822 76° East 213 245 10,100 1,680 Climbing Cleveland Center
04:51PM 43.2236 -77.3803 77° East 224 258 11,900 1,440 Climbing Cleveland Center
04:52PM 43.2392 -77.2928 76° East 234 269 13,100 1,200 Climbing Cleveland Center
04:53PM 43.2572 -77.1961 76° East 253 291 14,400 1,320 Climbing Cleveland Center
04:54PM 43.2739 -77.1006 76° East 257 296 15,900 1,380 Climbing Cleveland Center
04:55PM 43.2867 -76.9944 81° East 257 296 17,300 1,200 Climbing Cleveland Center
04:56PM 43.2942 -76.8944 84° East 259 298 18,400 1,020 Climbing Cleveland Center
04:57PM 43.3072 -76.7947 80° East 262 302 19,500 960 Climbing Cleveland Center
04:58PM 43.3186 -76.6958 81° East 262 302 20,400 720 Climbing Cleveland Center
04:59PM 43.3325 -76.5956 79° East 264 304 21,000 240 Climbing Cleveland Center
05:00PM 43.3483 -76.4847 79° East 293 337 21,000  Level Cleveland Center
05:01PM 43.3617 -76.3672 81° East 306 352 21,000  Level Cleveland Center
05:02PM 43.3781 -76.2278 81° East 307 353 21,000  Level Cleveland Center
05:03PM 43.3889 -76.1075 83° East 314 361 21,000  Level Cleveland Center
05:04PM 43.3997 -75.9883 83° East 314 361 21,000  Level Cleveland Center
05:05PM 43.4094 -75.8683 84° East 315 362 21,000  Level Cleveland Center
05:06PM 43.4158 -75.7472 86° East 316 364 21,000  Level Cleveland Center
05:07PM 43.4233 -75.6269 85° East 316 364 21,000  Level Cleveland Center
05:08PM 43.4319 -75.5067 84° East 316 364 21,000  Level Cleveland Center
05:09PM 43.4403 -75.3847 85° East 316 364 21,000  Level Cleveland Center
05:10PM 43.4492 -75.2608 84° East 316 364 21,000  Level Cleveland Center
05:12PM 43.4606 -75.0942 85° East 317 365 21,000  Level Boston Center
05:13PM 43.4697 -74.9719 84° East 320 368 21,000  Level Boston Center
05:14PM 43.4969 -74.8336 75° East 318 366 21,000  Level Boston Center
05:15PM 43.5186 -74.7161 76° East 316 364 21,000  Level Boston Center
05:16PM 43.5392 -74.6003 76° East 316 364 21,000  Level Boston Center
05:17PM 43.5608 -74.4850 75° East 314 361 21,000  Level Boston Center
05:18PM 43.5822 -74.3706 75° East 314 361 21,000  Level Boston Center
05:19PM 43.6031 -74.2547 76° East 313 360 21,000  Level Boston Center
05:20PM 43.6247 -74.1417 75° East 312 359 21,000  Level Boston Center
05:21PM 43.6486 -74.0050 76° East 310 357 21,000  Level Boston Center
05:22PM 43.6697 -73.8914 76° East 309 356 21,000  Level Boston Center
05:23PM 43.6900 -73.7767 76° East 308 354 21,000  Level Boston Center
05:24PM 43.7103 -73.6611 76° East 309 356 21,000  Level Boston Center
05:25PM 43.7308 -73.5453 76° East 310 357 21,000  Level Boston Center
05:26PM 43.7511 -73.4281 76° East 311 358 21,000  Level Boston Center
05:27PM 43.7717 -73.3125 76° East 311 358 21,000  Level Boston Center
05:28PM 43.7947 -73.1744 77° East 309 356 21,000  Level Boston Center
05:29PM 43.8147 -73.0631 76° East 306 352 21,000  Level Boston Center
05:30PM 43.8306 -72.9617 78° East 303 349 21,000  Level Boston Center
05:31PM 43.8514 -72.8439 76° East 312 359 21,000  Level Boston Center
05:32PM 43.8756 -72.7022 77° East 312 359 21,000  Level Boston Center
05:33PM 43.8947 -72.5856 77° East 312 359 21,000  Level Boston Center
05:34PM 43.9136 -72.4672 77° East 312 359 21,000  Level Boston Center
05:35PM 43.9331 -72.3483 77° East 313 360 21,000  Level Boston Center
05:36PM 43.9536 -72.2281 77° East 316 364 21,000  Level Boston Center
05:37PM 43.9731 -72.1072 77° East 318 366 21,000  Level Boston Center
05:39PM 44.0128 -71.8603 77° East 318 366 21,000  Level Boston Center
05:40PM 44.0308 -71.7419 78° East 317 365 21,000  Level Boston Center
05:41PM 44.0492 -71.6206 78° East 318 366 21,000  Level Boston Center
05:42PM 44.0678 -71.4953 78° East 325 374 21,000  Level Boston Center
05:43PM 44.0872 -71.3497 79° East 322 371 21,000  Level Boston Center
05:44PM 44.1042 -71.2256 79° East 323 372 21,000  Level Boston Center
05:46PM 44.1211 -71.1031 79° East 323 372 21,000 -300 Level Boston Center
05:47PM 44.1386 -70.9808 79° East 322 371 20,500 -1,260 Descending Boston Center
05:48PM 44.1567 -70.8353 80° East 348 400 18,500 -1,860 Descending Boston Center
05:49PM 44.1761 -70.6906 79° East 374 430 16,800 -1,620 Descending Boston Center
05:50PM 44.1961 -70.5436 79° East 360 414 15,200 -1,440 Descending Boston Center
05:51PM 44.2139 -70.4114 79° East 351 404 13,900 -1,320 Descending Boston Center
05:52PM 44.2297 -70.2853 80° East 334 384 12,600 -1,620 Descending Boston Center
05:53PM 44.2453 -70.1625 80° East 325 374 10,600 -2,280 Descending Boston Center
05:54PM 44.2581 -70.0394 82° East 299 344 8,000 -2,220 Descending Boston Center
05:55PM 44.2536 -69.9439 94° East 287 330 6,100 -1,800 Descending Boston Center